createdAt,value
2019-04-19T00:00:13.829Z,965.55
2019-04-19T00:01:12.797Z,965.55
2019-04-19T00:02:12.138Z,965.56
2019-04-19T00:03:17.503Z,965.61
2019-04-19T00:04:14.911Z,965.59
2019-04-19T00:05:11.221Z,965.61
2019-04-19T00:06:15.043Z,965.57
2019-04-19T00:07:16.026Z,965.59
2019-04-19T00:08:28.553Z,965.59
2019-04-19T00:09:58.769Z,965.61
2019-04-19T00:11:18.453Z,965.56
2019-04-19T00:12:34.829Z,965.52
2019-04-19T00:13:22.296Z,965.6
2019-04-19T00:14:23.377Z,965.57
2019-04-19T00:15:22.500Z,965.53
2019-04-19T00:16:23.548Z,965.53
2019-04-19T00:17:25.128Z,965.55
2019-04-19T00:18:23.274Z,965.56
2019-04-19T00:19:37.799Z,965.57
2019-04-19T00:22:22.842Z,965.54
2019-04-19T00:23:43.046Z,965.57
2019-04-19T00:24:38.039Z,965.59
2019-04-19T00:25:38.646Z,965.63
2019-04-19T00:26:38.035Z,965.62
2019-04-19T00:27:45.562Z,965.62
2019-04-19T00:28:44.863Z,965.65
2019-04-19T00:29:46.333Z,965.62
2019-04-19T00:31:11.399Z,965.66
2019-04-19T00:32:44.967Z,965.64
2019-04-19T00:33:52.828Z,965.65
2019-04-19T00:34:48.743Z,965.64
2019-04-19T00:35:49.600Z,965.7
2019-04-19T00:36:48.873Z,965.63
2019-04-19T00:37:51.075Z,965.7
2019-04-19T00:39:14.762Z,965.64
2019-04-19T00:41:06.592Z,965.66
2019-04-19T00:43:02.737Z,965.67
2019-04-19T00:45:18.399Z,965.65
2019-04-19T00:47:11.814Z,965.64
2019-04-19T00:48:58.027Z,965.63
2019-04-19T00:50:23.357Z,965.69
2019-04-19T00:52:12.219Z,965.67
2019-04-19T00:53:43.366Z,965.68
2019-04-19T00:55:01.047Z,965.66
2019-04-19T00:56:11.373Z,965.72
2019-04-19T00:57:24.164Z,965.75
2019-04-19T00:58:24.736Z,965.71
2019-04-19T00:59:19.800Z,965.75
2019-04-19T01:00:25.523Z,965.75
2019-04-19T01:01:23.117Z,965.74
2019-04-19T01:02:20.451Z,965.77
2019-04-19T01:03:26.271Z,965.81
2019-04-19T01:04:23.747Z,965.82
2019-04-19T01:05:21.410Z,965.79
2019-04-19T01:06:21.594Z,965.82
2019-04-19T01:07:22.783Z,965.76
2019-04-19T01:08:21.700Z,965.77
2019-04-19T01:09:30.864Z,965.83
2019-04-19T01:11:17.866Z,965.84
2019-04-19T01:12:52.336Z,965.8
2019-04-19T01:14:29.659Z,965.86
2019-04-19T01:15:50.913Z,965.91
2019-04-19T01:17:25.266Z,965.87
2019-04-19T01:19:00.331Z,965.91
2019-04-19T01:19:58.418Z,965.88
2019-04-19T01:20:54.142Z,965.88
2019-04-19T01:21:53.348Z,965.87
2019-04-19T01:22:58.459Z,965.87
2019-04-19T01:23:58.261Z,965.89
2019-04-19T01:24:54.198Z,965.93
2019-04-19T01:25:58.991Z,965.94
2019-04-19T01:26:54.656Z,965.95
2019-04-19T01:27:53.099Z,965.89
2019-04-19T01:28:58.726Z,965.94
2019-04-19T01:29:55.967Z,965.92
2019-04-19T01:30:52.758Z,965.94
2019-04-19T01:31:58.012Z,965.92
2019-04-19T01:32:56.138Z,965.93
2019-04-19T01:33:52.765Z,965.94
2019-04-19T01:34:59.230Z,965.91
2019-04-19T01:35:55.381Z,965.99
2019-04-19T01:36:53.119Z,965.95
2019-04-19T01:37:55.633Z,965.95
2019-04-19T01:39:04.844Z,965.95
2019-04-19T01:41:02.848Z,965.99
2019-04-19T01:42:43.648Z,965.97
2019-04-19T01:44:47.323Z,966
2019-04-19T01:46:33.760Z,965.98
2019-04-19T01:48:39.056Z,965.99
2019-04-19T01:50:12.145Z,965.98
2019-04-19T01:52:14.935Z,965.98
2019-04-19T01:54:45.249Z,966.01
2019-04-19T01:55:40.413Z,965.99
2019-04-19T01:56:38.640Z,966.01
2019-04-19T01:57:38.791Z,966.01
2019-04-19T01:58:44.391Z,966.03
2019-04-19T01:59:44.850Z,966.01
2019-04-19T02:00:44.160Z,966.05
2019-04-19T02:01:37.759Z,966.02
2019-04-19T02:02:43.565Z,966.03
2019-04-19T02:03:43.372Z,966.02
2019-04-19T02:04:38.316Z,965.98
2019-04-19T02:05:43.624Z,966.03
2019-04-19T02:06:41.521Z,966
2019-04-19T02:07:38.914Z,966.02
2019-04-19T02:08:40.950Z,966.04
2019-04-19T02:09:54.064Z,966.01
2019-04-19T02:11:18.435Z,966.01
2019-04-19T02:12:39.163Z,966.02
2019-04-19T02:13:50.682Z,965.99
2019-04-19T02:14:50.333Z,965.98
2019-04-19T02:15:47.159Z,966.01
2019-04-19T02:16:49.502Z,966.02
2019-04-19T02:17:46.853Z,966.04
2019-04-19T02:18:43.133Z,966.03
2019-04-19T02:19:47.846Z,966.06
2019-04-19T02:20:45.607Z,966.06
2019-04-19T02:21:44.256Z,966.08
2019-04-19T02:22:42.713Z,966.09
2019-04-19T02:23:49.347Z,966.03
2019-04-19T02:24:47.020Z,966.08
2019-04-19T02:25:42.013Z,966.08
2019-04-19T02:26:46.204Z,966.08
2019-04-19T02:27:45.420Z,966.08
2019-04-19T02:28:42.940Z,966.08
2019-04-19T02:29:48.056Z,966.08
